Terminal Aerodrome Forecast
Issued by NWS Boise, ID

Home | Current Version | Previous Version | Text Only | Print | Product List | Glossary On
Versions: 1 2 3 4 5 6 7 8 9 10 11 12 13
000
FTUS45 KBOI 231145
TAFBOI
TAF
KBOI 231145Z 2312/2412 30012KT P6SM SKC
     FM231800 31015G22KT P6SM SKC
     FM240500 VRB06KT P6SM SKC
     FM240900 14010KT P6SM SKC=

USA.gov is the U.S. government's official web portal to all federal, state and local government web resources and services.